createdAt,value
2024-02-19T00:01:00.774Z,2.90
2024-02-19T00:03:47.034Z,3.03
2024-02-19T00:06:14.611Z,2.86
2024-02-19T00:08:42.417Z,2.80
2024-02-19T00:11:09.934Z,3.32
2024-02-19T00:13:38.720Z,3.21
2024-02-19T00:16:06.495Z,3.43
2024-02-19T00:18:34.539Z,3.42
2024-02-19T00:21:02.027Z,3.16
2024-02-19T00:23:30.297Z,3.33
2024-02-19T00:25:57.676Z,3.47
2024-02-19T00:28:25.490Z,3.20
2024-02-19T00:30:53.162Z,3.15
2024-02-19T00:33:21.482Z,3.23
2024-02-19T00:35:49.205Z,3.50
2024-02-19T00:38:16.896Z,3.64
2024-02-19T00:40:44.359Z,3.43
2024-02-19T00:43:12.512Z,3.63
2024-02-19T00:45:39.960Z,3.02
2024-02-19T00:48:07.855Z,3.12
2024-02-19T00:50:35.312Z,3.68
2024-02-19T00:53:02.971Z,2.98
2024-02-19T00:55:30.418Z,3.10
2024-02-19T00:57:58.198Z,3.31
2024-02-19T01:00:27.570Z,3.01
2024-02-19T01:02:55.439Z,2.86
2024-02-19T01:05:23.107Z,3.13
2024-02-19T01:07:50.840Z,2.75
2024-02-19T01:10:18.578Z,2.75
2024-02-19T01:12:46.470Z,3.11
2024-02-19T01:15:13.992Z,3.19
2024-02-19T01:17:41.725Z,2.67
2024-02-19T01:20:10.916Z,2.84
2024-02-19T01:22:40.153Z,2.96
2024-02-19T01:25:07.861Z,2.75
2024-02-19T01:27:35.814Z,2.96
2024-02-19T01:30:03.278Z,3.00
2024-02-19T01:32:31.059Z,2.89
2024-02-19T01:34:58.778Z,2.62
2024-02-19T01:37:26.636Z,2.91
2024-02-19T01:39:54.346Z,2.86
2024-02-19T01:42:22.095Z,3.22
2024-02-19T01:44:49.520Z,2.47
2024-02-19T01:47:19.352Z,3.14
2024-02-19T01:49:46.783Z,3.31
2024-02-19T01:52:14.607Z,2.58
2024-02-19T01:54:42.334Z,3.19
2024-02-19T01:57:10.382Z,2.74
2024-02-19T01:59:39.079Z,2.86
2024-02-19T02:02:07.032Z,2.71
2024-02-19T02:04:35.577Z,2.95
2024-02-19T02:07:04.439Z,2.51
2024-02-19T02:09:31.842Z,2.84
2024-02-19T02:11:59.745Z,2.99
2024-02-19T02:14:27.390Z,2.91
2024-02-19T02:16:55.271Z,2.93
2024-02-19T02:19:23.339Z,2.84
2024-02-19T02:21:51.162Z,3.26
2024-02-19T02:24:20.656Z,3.05
2024-02-19T02:26:48.511Z,2.72
2024-02-19T02:29:16.009Z,2.69
2024-02-19T02:31:43.722Z,2.62
2024-02-19T02:34:11.275Z,2.84
2024-02-19T02:36:41.707Z,2.70
2024-02-19T02:39:09.291Z,3.27
2024-02-19T02:41:37.181Z,2.71
2024-02-19T02:44:04.586Z,3.09
2024-02-19T02:46:32.280Z,3.08
2024-02-19T02:48:59.930Z,3.00
2024-02-19T02:51:27.733Z,2.96
2024-02-19T02:53:55.140Z,2.78
2024-02-19T02:56:23.317Z,2.53
2024-02-19T02:58:51.588Z,2.73
2024-02-19T03:01:21.501Z,2.76
2024-02-19T03:03:49.173Z,2.82
2024-02-19T03:06:17.013Z,2.81
2024-02-19T03:08:45.054Z,2.83
2024-02-19T03:11:13.980Z,2.70
2024-02-19T03:13:41.385Z,2.73
2024-02-19T03:16:09.428Z,3.03
2024-02-19T03:18:37.114Z,2.49
2024-02-19T03:21:09.292Z,3.15
2024-02-19T03:23:36.750Z,2.80
2024-02-19T03:26:05.827Z,2.83
2024-02-19T03:28:34.342Z,3.13
2024-02-19T03:31:02.552Z,2.42
2024-02-19T03:33:30.081Z,2.65
2024-02-19T03:35:57.719Z,2.76
2024-02-19T03:38:25.917Z,3.15
2024-02-19T03:40:53.681Z,3.45
2024-02-19T03:43:21.208Z,3.17
2024-02-19T03:45:51.837Z,3.60
2024-02-19T03:48:19.432Z,3.28
2024-02-19T03:50:47.214Z,2.96
2024-02-19T03:53:14.642Z,2.79
2024-02-19T03:55:42.444Z,2.70
2024-02-19T03:58:09.832Z,2.92
2024-02-19T04:00:37.652Z,2.87
2024-02-19T04:03:05.504Z,2.83
2024-02-19T04:05:33.592Z,2.70
2024-02-19T04:08:01.128Z,2.77
2024-02-19T04:10:28.929Z,2.80
2024-02-19T04:12:56.351Z,2.70
2024-02-19T04:15:23.994Z,2.80
2024-02-19T04:17:51.554Z,2.52
2024-02-19T04:20:19.460Z,2.56
2024-02-19T04:22:46.831Z,2.40
2024-02-19T04:25:15.527Z,2.65
2024-02-19T04:27:43.004Z,2.52
2024-02-19T04:30:11.009Z,2.37
2024-02-19T04:32:38.615Z,2.50
2024-02-19T04:35:07.001Z,2.46
2024-02-19T04:37:34.413Z,2.54
2024-02-19T04:40:04.098Z,2.66
2024-02-19T04:42:31.594Z,2.32
2024-02-19T04:44:59.306Z,2.56
2024-02-19T04:47:26.754Z,2.58
2024-02-19T04:49:54.833Z,2.83
2024-02-19T04:52:22.552Z,2.57
2024-02-19T04:54:50.366Z,2.53
2024-02-19T04:57:17.780Z,2.86
2024-02-19T04:59:45.548Z,2.81
2024-02-19T05:02:13.319Z,2.24
2024-02-19T05:04:41.610Z,2.60
2024-02-19T05:07:09.211Z,2.55
2024-02-19T05:09:37.354Z,2.53
2024-02-19T05:12:05.660Z,2.61
2024-02-19T05:14:33.358Z,2.79
2024-02-19T05:17:01.896Z,2.62
2024-02-19T05:19:29.840Z,2.62
2024-02-19T05:21:57.392Z,2.55
2024-02-19T05:24:25.138Z,2.74
2024-02-19T05:26:52.603Z,2.69
2024-02-19T05:29:21.120Z,2.81
2024-02-19T05:31:48.550Z,3.02
2024-02-19T05:34:17.031Z,2.51
2024-02-19T05:36:44.488Z,2.77
2024-02-19T05:39:12.474Z,3.03
2024-02-19T05:41:40.818Z,2.84
2024-02-19T05:44:08.783Z,2.58
2024-02-19T05:46:36.826Z,2.61
2024-02-19T05:49:04.833Z,2.98
2024-02-19T05:51:32.494Z,2.85
2024-02-19T05:54:00.228Z,2.51
2024-02-19T05:56:30.050Z,2.42
2024-02-19T05:58:57.893Z,2.20
2024-02-19T06:01:25.474Z,2.43
2024-02-19T06:03:53.358Z,2.52
2024-02-19T06:06:21.162Z,2.49
2024-02-19T06:08:48.848Z,2.57
2024-02-19T06:11:16.335Z,2.42
2024-02-19T06:13:44.205Z,2.39
2024-02-19T06:16:11.630Z,2.21
2024-02-19T06:18:39.506Z,2.62
2024-02-19T06:21:06.934Z,2.25
2024-02-19T06:23:34.594Z,2.40
2024-02-19T06:26:02.092Z,2.20
2024-02-19T06:28:29.865Z,2.14
2024-02-19T06:30:57.371Z,2.35
2024-02-19T06:33:25.462Z,2.38
2024-02-19T06:35:52.843Z,2.42
2024-02-19T06:38:20.756Z,2.08
2024-02-19T06:40:48.632Z,2.47
2024-02-19T06:43:17.246Z,2.47
2024-02-19T06:45:44.722Z,2.53
2024-02-19T06:48:12.675Z,2.14
2024-02-19T06:50:40.922Z,2.54
2024-02-19T06:53:08.694Z,2.08
2024-02-19T06:55:36.240Z,2.17
2024-02-19T06:58:04.188Z,2.08
2024-02-19T07:00:31.639Z,2.31
2024-02-19T07:02:59.357Z,2.08
2024-02-19T07:05:27.052Z,2.13
2024-02-19T07:07:54.889Z,2.24
2024-02-19T07:10:22.368Z,2.33
2024-02-19T07:12:50.112Z,1.88
2024-02-19T07:15:17.714Z,2.51
2024-02-19T07:17:46.306Z,2.16
2024-02-19T07:20:14.294Z,1.70
2024-02-19T07:22:42.079Z,1.79
2024-02-19T07:25:16.977Z,2.00
2024-02-19T07:27:49.070Z,1.87
2024-02-19T07:30:17.272Z,1.95
2024-02-19T07:32:45.098Z,1.99
2024-02-19T07:35:12.791Z,1.90
2024-02-19T07:37:40.815Z,1.84
2024-02-19T07:40:09.057Z,2.18
2024-02-19T07:42:38.161Z,1.85
2024-02-19T07:45:09.105Z,2.02
2024-02-19T07:47:37.059Z,1.99
2024-02-19T07:50:05.051Z,1.97
2024-02-19T07:52:32.832Z,2.12
2024-02-19T07:55:00.395Z,2.14
2024-02-19T07:57:28.277Z,1.73
2024-02-19T07:59:55.777Z,1.87
2024-02-19T08:02:23.548Z,1.89
2024-02-19T08:04:51.134Z,1.83
2024-02-19T08:07:19.934Z,1.91
2024-02-19T08:09:47.550Z,2.28
2024-02-19T08:12:15.428Z,2.05
2024-02-19T08:14:42.880Z,2.12
2024-02-19T08:17:10.644Z,1.63
2024-02-19T08:19:38.253Z,1.81
2024-02-19T08:22:06.141Z,1.68
2024-02-19T08:24:33.621Z,1.64
2024-02-19T08:27:01.306Z,1.76
2024-02-19T08:29:30.336Z,1.83
2024-02-19T08:31:58.982Z,1.91
2024-02-19T08:34:27.027Z,1.85
2024-02-19T08:36:55.016Z,2.21
2024-02-19T08:39:22.573Z,1.81
2024-02-19T08:41:50.573Z,2.07
2024-02-19T08:44:17.945Z,2.39
2024-02-19T08:46:45.825Z,1.89
2024-02-19T08:49:13.350Z,2.17
2024-02-19T08:51:41.430Z,1.92
2024-02-19T08:54:09.792Z,1.95
2024-02-19T08:56:37.673Z,1.73
2024-02-19T08:59:05.565Z,1.75
2024-02-19T09:01:33.575Z,2.04
2024-02-19T09:04:01.304Z,1.92
2024-02-19T09:06:29.180Z,1.69
2024-02-19T09:08:56.818Z,1.77
2024-02-19T09:11:24.707Z,1.88
2024-02-19T09:13:52.169Z,2.00
2024-02-19T09:16:20.103Z,2.09
2024-02-19T09:18:47.634Z,2.10
2024-02-19T09:21:15.327Z,1.80
2024-02-19T09:23:42.856Z,1.74
2024-02-19T09:26:14.838Z,2.07
2024-02-19T09:28:42.427Z,2.27
2024-02-19T09:31:10.221Z,2.04
2024-02-19T09:33:37.695Z,2.02
2024-02-19T09:36:06.705Z,1.93
2024-02-19T09:38:34.252Z,1.93
2024-02-19T09:41:05.514Z,1.69
2024-02-19T09:43:33.263Z,1.84
2024-02-19T09:46:05.115Z,1.84
2024-02-19T09:48:34.392Z,1.73
2024-02-19T09:51:04.881Z,1.79
2024-02-19T09:53:35.392Z,1.76
2024-02-19T09:56:03.228Z,1.88
2024-02-19T09:58:32.052Z,2.01
2024-02-19T10:01:00.366Z,1.75
2024-02-19T10:03:27.859Z,1.81
2024-02-19T10:05:55.721Z,1.84
2024-02-19T10:08:25.001Z,1.86
2024-02-19T10:10:57.200Z,2.10
2024-02-19T10:13:25.392Z,1.89
2024-02-19T10:15:53.506Z,1.99
2024-02-19T10:18:22.284Z,1.95
2024-02-19T10:20:54.234Z,2.02
2024-02-19T10:23:24.116Z,1.81
2024-02-19T10:25:54.894Z,1.79
2024-02-19T10:28:23.764Z,2.01
2024-02-19T10:30:52.611Z,2.07
2024-02-19T10:33:21.061Z,2.08
2024-02-19T10:35:50.683Z,2.11
2024-02-19T10:38:18.234Z,1.97
2024-02-19T10:40:46.510Z,1.78
2024-02-19T10:43:15.538Z,2.21
2024-02-19T10:45:43.768Z,2.35
2024-02-19T10:48:11.965Z,2.18
2024-02-19T10:50:39.790Z,2.31
2024-02-19T10:53:08.228Z,1.88
2024-02-19T10:55:45.944Z,2.31
2024-02-19T10:58:26.816Z,2.23
2024-02-19T11:00:59.033Z,2.41
2024-02-19T11:03:26.718Z,1.92
2024-02-19T11:06:00.033Z,2.28
2024-02-19T11:08:29.378Z,2.24
2024-02-19T11:10:58.970Z,2.50
2024-02-19T11:13:26.865Z,2.47
2024-02-19T11:15:54.888Z,2.29
2024-02-19T11:18:23.127Z,2.54
2024-02-19T11:20:51.254Z,2.50
2024-02-19T11:23:20.198Z,2.19
2024-02-19T11:25:48.252Z,2.41
2024-02-19T11:28:15.964Z,2.00
2024-02-19T11:30:43.865Z,2.12
2024-02-19T11:33:12.998Z,2.34
2024-02-19T11:35:44.860Z,2.20
2024-02-19T11:38:12.523Z,2.52
2024-02-19T11:40:40.472Z,2.52
2024-02-19T11:43:08.705Z,2.46
2024-02-19T11:45:38.276Z,2.36
2024-02-19T11:48:06.551Z,2.69
2024-02-19T11:50:34.299Z,2.64
2024-02-19T11:53:04.284Z,2.75
2024-02-19T11:55:34.934Z,3.06
2024-02-19T11:58:03.766Z,2.51
2024-02-19T12:00:32.755Z,2.68
2024-02-19T12:03:01.387Z,2.77
2024-02-19T12:05:29.690Z,2.40
2024-02-19T12:07:57.640Z,3.15
2024-02-19T12:10:25.829Z,2.61
2024-02-19T12:12:53.431Z,3.44
2024-02-19T12:15:21.273Z,2.75
2024-02-19T12:17:49.998Z,2.71
2024-02-19T12:20:19.367Z,3.06
2024-02-19T12:22:47.098Z,2.37
2024-02-19T12:25:14.982Z,2.71
2024-02-19T12:27:42.634Z,2.61
2024-02-19T12:30:10.768Z,3.39
2024-02-19T12:32:38.455Z,3.19
2024-02-19T12:35:07.097Z,2.81
2024-02-19T12:37:35.292Z,3.31
2024-02-19T12:40:04.738Z,2.72
2024-02-19T12:42:32.771Z,3.29
2024-02-19T12:45:00.470Z,3.43
2024-02-19T12:47:28.056Z,3.95
2024-02-19T12:49:56.075Z,3.43
2024-02-19T12:52:28.496Z,3.97
2024-02-19T12:54:56.859Z,3.14
2024-02-19T12:57:24.493Z,3.08
2024-02-19T12:59:52.342Z,3.23
2024-02-19T13:02:20.538Z,3.36
2024-02-19T13:04:48.568Z,3.67
2024-02-19T13:07:16.855Z,3.66
2024-02-19T13:09:45.668Z,3.35
2024-02-19T13:12:15.533Z,3.26
2024-02-19T13:14:45.057Z,3.86
2024-02-19T13:17:16.913Z,3.80
2024-02-19T13:19:49.804Z,3.76
2024-02-19T13:22:17.374Z,3.85
2024-02-19T13:24:45.644Z,3.82
2024-02-19T13:27:13.403Z,3.19
2024-02-19T13:29:41.823Z,3.67
2024-02-19T13:32:09.957Z,3.51
2024-02-19T13:34:39.336Z,4.04
2024-02-19T13:37:08.050Z,3.81
2024-02-19T13:39:36.029Z,4.10
2024-02-19T13:42:05.532Z,3.88
2024-02-19T13:44:33.496Z,4.21
2024-02-19T13:47:00.997Z,3.87
2024-02-19T13:49:29.158Z,4.13
2024-02-19T13:51:56.782Z,4.39
2024-02-19T13:54:24.595Z,4.12
2024-02-19T13:56:53.808Z,3.74
2024-02-19T13:59:21.732Z,4.17
2024-02-19T14:01:49.425Z,4.50
2024-02-19T14:04:17.842Z,4.44
2024-02-19T14:06:45.558Z,4.43
2024-02-19T14:09:13.255Z,4.76
2024-02-19T14:11:41.057Z,4.52
2024-02-19T14:14:09.010Z,4.12
2024-02-19T14:16:36.606Z,4.27
2024-02-19T14:19:04.700Z,4.28
2024-02-19T14:21:33.327Z,3.82
2024-02-19T14:24:01.661Z,4.45
2024-02-19T14:26:30.332Z,4.07
2024-02-19T14:28:59.098Z,4.27
2024-02-19T14:31:26.759Z,4.50
2024-02-19T14:33:54.752Z,4.39
2024-02-19T14:36:25.525Z,3.84
2024-02-19T14:38:54.168Z,4.48
2024-02-19T14:41:22.806Z,4.52
2024-02-19T14:43:50.771Z,4.61
2024-02-19T14:46:19.471Z,4.57
2024-02-19T14:48:47.632Z,4.51
2024-02-19T14:51:19.584Z,4.87
2024-02-19T14:53:49.185Z,4.64
2024-02-19T14:56:16.643Z,4.66
2024-02-19T14:58:44.372Z,4.88
2024-02-19T15:01:12.629Z,4.99
2024-02-19T15:03:40.337Z,4.90
2024-02-19T15:06:08.126Z,4.97
2024-02-19T15:08:35.965Z,5.08
2024-02-19T15:11:03.615Z,4.99
2024-02-19T15:13:31.770Z,4.52
2024-02-19T15:15:59.325Z,4.78
2024-02-19T15:18:27.448Z,4.41
2024-02-19T15:20:55.241Z,4.61
2024-02-19T15:23:23.136Z,4.77
2024-02-19T15:25:50.818Z,4.77
2024-02-19T15:28:19.111Z,4.77
2024-02-19T15:30:47.792Z,4.88
2024-02-19T15:33:15.919Z,5.06
2024-02-19T15:35:45.244Z,5.07
2024-02-19T15:38:13.965Z,4.88
2024-02-19T15:40:41.519Z,5.05
2024-02-19T15:43:09.308Z,5.00
2024-02-19T15:45:37.260Z,5.13
2024-02-19T15:48:05.882Z,5.11
2024-02-19T15:50:33.868Z,5.15
2024-02-19T15:53:06.314Z,4.98
2024-02-19T15:55:35.339Z,4.74
2024-02-19T15:58:03.164Z,4.93
2024-02-19T16:00:32.543Z,5.12
2024-02-19T16:03:00.214Z,5.21
2024-02-19T16:05:28.008Z,5.32
2024-02-19T16:07:55.839Z,5.14
2024-02-19T16:10:23.681Z,5.13
2024-02-19T16:12:52.324Z,5.35
2024-02-19T16:15:21.485Z,5.27
2024-02-19T16:17:49.556Z,5.32
2024-02-19T16:20:17.144Z,5.20
2024-02-19T16:22:48.232Z,5.35
2024-02-19T16:25:15.816Z,5.31
2024-02-19T16:27:43.864Z,5.33
2024-02-19T16:30:14.206Z,5.42
2024-02-19T16:32:42.174Z,5.30
2024-02-19T16:35:11.472Z,5.50
2024-02-19T16:37:39.785Z,5.57
2024-02-19T16:40:08.190Z,5.49
2024-02-19T16:42:39.240Z,5.50
2024-02-19T16:45:07.350Z,5.54
2024-02-19T16:47:35.168Z,5.50
2024-02-19T16:50:02.793Z,5.62
2024-02-19T16:52:30.815Z,5.33
2024-02-19T16:54:58.276Z,5.53
2024-02-19T16:57:27.114Z,5.51
2024-02-19T16:59:54.443Z,5.58
2024-02-19T17:02:23.158Z,5.66
2024-02-19T17:04:52.880Z,5.56
2024-02-19T17:07:21.198Z,5.64
2024-02-19T17:09:49.227Z,5.40
2024-02-19T17:12:16.950Z,5.39
2024-02-19T17:14:46.137Z,5.10
2024-02-19T17:17:13.756Z,5.37
2024-02-19T17:19:41.376Z,5.08
2024-02-19T17:22:09.437Z,5.25
2024-02-19T17:24:40.729Z,4.90
2024-02-19T17:27:09.068Z,5.08
2024-02-19T17:29:36.771Z,5.15
2024-02-19T17:32:05.277Z,5.00
2024-02-19T17:34:33.022Z,5.25
2024-02-19T17:37:01.551Z,5.21
2024-02-19T17:39:28.999Z,5.09
2024-02-19T17:41:57.166Z,5.13
2024-02-19T17:44:25.149Z,4.99
2024-02-19T17:46:55.616Z,5.17
2024-02-19T17:49:23.441Z,5.19
2024-02-19T17:51:53.649Z,4.78
2024-02-19T17:54:21.753Z,5.01
2024-02-19T17:56:49.673Z,4.90
2024-02-19T17:59:17.315Z,4.83
2024-02-19T18:01:45.179Z,4.76
2024-02-19T18:04:17.404Z,4.85
2024-02-19T18:06:45.958Z,4.81
2024-02-19T18:09:13.416Z,4.85
2024-02-19T18:11:41.398Z,4.93
2024-02-19T18:14:09.168Z,5.02
2024-02-19T18:16:39.921Z,5.16
2024-02-19T18:19:08.022Z,4.98
2024-02-19T18:21:36.629Z,5.18
2024-02-19T18:24:09.322Z,4.79
2024-02-19T18:26:37.076Z,4.76
2024-02-19T18:29:04.778Z,4.87
2024-02-19T18:31:33.177Z,4.93
2024-02-19T18:34:01.869Z,5.02
2024-02-19T18:36:29.916Z,4.96
2024-02-19T18:38:57.230Z,4.93
2024-02-19T18:41:25.469Z,5.16
2024-02-19T18:43:52.970Z,4.78
2024-02-19T18:46:21.441Z,5.02
2024-02-19T18:48:49.031Z,5.13
2024-02-19T18:51:16.861Z,4.89
2024-02-19T18:53:44.282Z,5.05
2024-02-19T18:56:12.038Z,5.10
2024-02-19T18:58:39.630Z,5.08
2024-02-19T19:01:08.486Z,4.99
2024-02-19T19:03:36.056Z,5.07
2024-02-19T19:06:04.745Z,5.02
2024-02-19T19:08:32.591Z,5.12
2024-02-19T19:11:00.461Z,4.99
2024-02-19T19:13:29.497Z,5.02
2024-02-19T19:15:57.489Z,5.12
2024-02-19T19:18:25.701Z,5.03
2024-02-19T19:20:53.789Z,4.95
2024-02-19T19:23:21.336Z,5.24
2024-02-19T19:25:49.504Z,5.02
2024-02-19T19:28:17.699Z,5.02
2024-02-19T19:30:46.541Z,5.19
2024-02-19T19:33:15.714Z,5.09
2024-02-19T19:35:49.074Z,5.20
2024-02-19T19:38:17.470Z,4.91
2024-02-19T19:40:45.506Z,5.08
2024-02-19T19:43:13.113Z,5.34
2024-02-19T19:45:41.124Z,5.21
2024-02-19T19:48:09.064Z,5.22
2024-02-19T19:50:37.139Z,5.03
2024-02-19T19:53:05.004Z,4.92
2024-02-19T19:55:32.748Z,4.80
2024-02-19T19:58:00.373Z,5.13
2024-02-19T20:00:28.688Z,5.23
2024-02-19T20:02:58.317Z,4.91
2024-02-19T20:05:26.166Z,4.86
2024-02-19T20:07:53.923Z,5.07
2024-02-19T20:10:21.816Z,5.09
2024-02-19T20:12:50.914Z,5.06
2024-02-19T20:15:18.923Z,4.87
2024-02-19T20:17:46.567Z,4.79
2024-02-19T20:20:14.533Z,4.83
2024-02-19T20:22:42.158Z,5.05
2024-02-19T20:25:10.446Z,4.95
2024-02-19T20:27:38.589Z,4.97
2024-02-19T20:30:08.058Z,4.97
2024-02-19T20:32:35.699Z,5.06
2024-02-19T20:35:03.643Z,5.00
2024-02-19T20:37:31.187Z,5.15
2024-02-19T20:40:02.921Z,5.15
2024-02-19T20:42:30.616Z,5.20
2024-02-19T20:44:59.060Z,4.92
2024-02-19T20:47:26.801Z,4.93
2024-02-19T20:49:55.590Z,4.98
2024-02-19T20:52:23.484Z,5.03
2024-02-19T20:54:53.420Z,5.05
2024-02-19T20:57:21.365Z,5.03
2024-02-19T20:59:49.369Z,5.15
2024-02-19T21:02:16.806Z,5.34
2024-02-19T21:04:44.829Z,5.15
2024-02-19T21:07:12.454Z,5.07
2024-02-19T21:09:40.446Z,5.26
2024-02-19T21:12:08.637Z,5.20
2024-02-19T21:14:36.579Z,5.17
2024-02-19T21:17:04.264Z,5.00
2024-02-19T21:19:33.802Z,4.93
2024-02-19T21:22:01.690Z,5.10
2024-02-19T21:24:29.480Z,5.08
2024-02-19T21:26:59.143Z,5.02
2024-02-19T21:29:30.019Z,5.30
2024-02-19T21:31:58.212Z,5.34
2024-02-19T21:34:26.149Z,5.19
2024-02-19T21:36:57.842Z,5.02
2024-02-19T21:39:26.532Z,4.97
2024-02-19T21:41:54.053Z,5.13
2024-02-19T21:44:23.185Z,4.97
2024-02-19T21:46:50.784Z,5.15
2024-02-19T21:49:20.822Z,5.40
2024-02-19T21:51:49.339Z,5.16
2024-02-19T21:54:17.305Z,5.11
2024-02-19T21:56:44.826Z,5.39
2024-02-19T21:59:12.556Z,5.15
2024-02-19T22:01:40.225Z,5.13
2024-02-19T22:04:09.463Z,5.19
2024-02-19T22:06:37.066Z,5.30
2024-02-19T22:09:04.750Z,5.42
2024-02-19T22:11:32.317Z,5.50
2024-02-19T22:14:00.889Z,5.52
2024-02-19T22:16:28.414Z,5.18
2024-02-19T22:18:56.170Z,5.05
2024-02-19T22:21:23.710Z,4.89
2024-02-19T22:23:51.404Z,5.03
2024-02-19T22:26:18.867Z,5.02
2024-02-19T22:28:46.865Z,5.18
2024-02-19T22:31:14.358Z,5.37
2024-02-19T22:33:42.144Z,5.22
2024-02-19T22:36:09.896Z,5.32
2024-02-19T22:38:37.615Z,5.06
2024-02-19T22:41:05.124Z,5.23
2024-02-19T22:43:32.842Z,5.19
2024-02-19T22:46:00.278Z,5.31
2024-02-19T22:48:29.461Z,5.22
2024-02-19T22:50:57.031Z,5.40
2024-02-19T22:53:24.773Z,5.45
2024-02-19T22:55:52.419Z,5.06
2024-02-19T22:58:31.078Z,5.23
2024-02-19T23:01:03.231Z,5.07
2024-02-19T23:03:31.275Z,5.32
2024-02-19T23:05:58.883Z,5.41
2024-02-19T23:08:26.763Z,5.23
2024-02-19T23:10:55.951Z,5.30
2024-02-19T23:13:24.054Z,5.42
2024-02-19T23:15:51.623Z,5.57
2024-02-19T23:18:19.583Z,5.37
2024-02-19T23:20:47.121Z,5.44
2024-02-19T23:23:14.741Z,5.54
2024-02-19T23:25:42.501Z,5.64
2024-02-19T23:28:10.248Z,5.16
2024-02-19T23:30:37.764Z,5.36
2024-02-19T23:33:05.888Z,5.21
2024-02-19T23:35:34.399Z,5.60
2024-02-19T23:38:02.024Z,5.61
2024-02-19T23:40:29.758Z,5.67
2024-02-19T23:42:57.606Z,5.61
2024-02-19T23:45:25.082Z,5.53
2024-02-19T23:47:53.189Z,5.75
2024-02-19T23:50:20.900Z,5.40
2024-02-19T23:52:49.055Z,5.29
2024-02-19T23:55:18.310Z,5.25
2024-02-19T23:57:46.284Z,5.39
